Time;durP1;ratioP1;P1;durP2;ratioP2;P2;SDS_P1;SDS_P2;PMS_P1;PMS_P2;Temp;Humidity;BMP_temperature;BMP_pressure;BME280_temperature;BME280_humidity;BME280_pressure;Samples;Min_cycle;Max_cycle;Signal;HPM_P1;HPM_P2
2023/09/17 00:01:23;;;;;;;29.87;23.97;;;22.50;99.10;;;;;;5075340;28;20448;-58
2023/09/17 00:03:50;;;;;;;26.77;24.03;;;22.40;99.60;;;;;;5075400;28;20555;-56
2023/09/17 00:06:16;;;;;;;27.00;24.30;;;22.40;99.90;;;;;;5075411;28;20457;-57
2023/09/17 00:08:43;;;;;;;23.00;20.70;;;22.40;99.90;;;;;;5075151;28;20472;-56
2023/09/17 00:11:11;;;;;;;21.30;18.43;;;22.30;99.90;;;;;;5074920;28;20946;-57
2023/09/17 00:13:39;;;;;;;19.57;17.50;;;22.30;99.90;;;;;;5074980;28;20487;-57
2023/09/17 00:16:07;;;;;;;21.73;19.73;;;22.30;99.80;;;;;;5075055;28;20860;-59
2023/09/17 00:18:33;;;;;;;16.87;15.17;;;22.30;99.90;;;;;;5075319;28;20444;-58
2023/09/17 00:21:00;;;;;;;18.93;17.13;;;22.30;99.90;;;;;;5075153;28;20444;-58
2023/09/17 00:23:27;;;;;;;19.27;16.97;;;22.30;99.90;;;;;;5075075;28;20455;-58
2023/09/17 00:25:53;;;;;;;17.83;15.93;;;22.30;99.90;;;;;;5075099;28;20417;-59
2023/09/17 00:28:20;;;;;;;19.00;17.00;;;22.30;99.50;;;;;;5074946;28;20445;-58
2023/09/17 00:30:48;;;;;;;18.70;16.20;;;22.30;99.20;;;;;;5074852;28;20472;-58
2023/09/17 00:33:16;;;;;;;27.30;24.50;;;22.30;99.30;;;;;;5074620;28;20441;-59
2023/09/17 00:35:43;;;;;;;26.23;22.83;;;22.30;99.50;;;;;;5074847;28;20452;-59
2023/09/17 00:38:10;;;;;;;23.00;20.53;;;22.30;99.80;;;;;;5074633;28;20453;-59
2023/09/17 00:40:39;;;;;;;24.97;22.33;;;22.40;99.80;;;;;;5074849;28;20464;-59
2023/09/17 00:43:06;;;;;;;23.67;21.50;;;22.30;99.40;;;;;;5074464;28;20506;-58
2023/09/17 00:45:33;;;;;;;26.75;24.15;;;22.30;99.40;;;;;;5074493;28;20437;-59
2023/09/17 00:48:01;;;;;;;24.73;22.20;;;22.30;99.70;;;;;;5074110;28;20680;-59
2023/09/17 00:50:31;;;;;;;21.07;19.10;;;22.30;99.70;;;;;;5074204;28;20465;-59
2023/09/17 00:52:58;;;;;;;22.13;19.83;;;22.40;99.90;;;;;;5074262;28;20477;-59
2023/09/17 00:55:25;;;;;;;26.70;23.67;;;22.30;99.60;;;;;;5074229;28;20488;-59
2023/09/17 00:57:52;;;;;;;25.70;23.20;;;22.30;99.60;;;;;;5074326;28;20499;-59
2023/09/17 01:00:21;;;;;;;23.83;20.53;;;22.30;99.70;;;;;;5074104;28;20547;-59
2023/09/17 01:02:48;;;;;;;25.90;23.10;;;22.40;99.90;;;;;;5073856;28;20444;-59
2023/09/17 01:05:15;;;;;;;23.90;21.60;;;22.30;99.70;;;;;;5074087;28;20444;-59
2023/09/17 01:07:43;;;;;;;24.40;21.83;;;22.40;99.60;;;;;;5074083;28;20531;-59
2023/09/17 01:10:10;;;;;;;24.17;21.70;;;22.40;99.70;;;;;;5074192;28;20461;-59
2023/09/17 01:12:38;;;;;;;24.53;21.97;;;22.40;99.80;;;;;;5074031;28;20437;-59
2023/09/17 01:15:09;;;;;;;22.93;20.73;;;22.40;99.60;;;;;;5073705;28;20504;-59
2023/09/17 01:17:36;;;;;;;27.10;24.20;;;22.30;99.60;;;;;;5073618;28;20852;-59
2023/09/17 01:20:20;;;;;;;24.10;21.60;;;22.40;99.90;;;;;;5073835;28;20463;-59
2023/09/17 01:22:52;;;;;;;26.47;23.40;;;22.40;99.90;;;;;;5073944;28;20432;-59
2023/09/17 01:25:31;;;;;;;29.20;22.60;;;22.40;99.90;;;;;;5073555;28;20969;-59
2023/09/17 01:28:01;;;;;;;22.30;19.90;;;22.40;99.90;;;;;;5073742;28;20460;-59
2023/09/17 01:30:29;;;;;;;25.30;22.67;;;22.40;99.90;;;;;;5073711;28;20467;-58
2023/09/17 01:32:56;;;;;;;26.30;22.37;;;22.40;99.90;;;;;;5073502;28;20848;-57
2023/09/17 01:35:23;;;;;;;26.10;23.47;;;22.30;99.90;;;;;;5073640;28;20846;-58
2023/09/17 01:37:54;;;;;;;25.80;23.20;;;22.40;99.90;;;;;;5073271;28;20441;-57
2023/09/17 01:40:21;;;;;;;26.00;23.40;;;22.30;99.90;;;;;;5073262;28;21019;-57
2023/09/17 01:42:49;;;;;;;24.10;21.67;;;22.30;99.90;;;;;;5073835;28;20433;-57
2023/09/17 01:45:18;;;;;;;23.67;21.07;;;22.30;99.90;;;;;;5073825;28;20441;-57
2023/09/17 01:47:48;;;;;;;25.17;22.50;;;22.30;99.90;;;;;;5073678;28;20440;-58
2023/09/17 01:50:17;;;;;;;26.73;22.50;;;22.30;99.90;;;;;;5073767;28;20498;-58
2023/09/17 01:52:45;;;;;;;25.20;22.67;;;22.30;99.90;;;;;;5073599;28;20491;-58
2023/09/17 01:55:12;;;;;;;24.73;22.37;;;22.30;99.90;;;;;;5073430;28;20484;-58
2023/09/17 01:57:39;;;;;;;24.00;21.60;;;22.30;99.90;;;;;;5073410;28;20445;-58
2023/09/17 02:00:14;;;;;;;21.83;19.73;;;22.30;99.90;;;;;;5073596;28;20460;-58
2023/09/17 02:02:46;;;;;;;23.13;21.03;;;22.30;99.90;;;;;;5072739;28;20421;-58
2023/09/17 02:05:13;;;;;;;24.80;22.37;;;22.30;99.90;;;;;;5073505;28;20421;-58
2023/09/17 02:07:40;;;;;;;26.17;23.40;;;22.30;99.90;;;;;;5073448;28;20455;-59
2023/09/17 02:10:08;;;;;;;27.33;24.60;;;22.30;99.90;;;;;;5073217;28;20460;-57
2023/09/17 02:12:34;;;;;;;27.40;22.93;;;22.20;99.90;;;;;;5073354;28;20463;-57
2023/09/17 02:15:01;;;;;;;24.97;22.07;;;22.20;99.90;;;;;;5073126;28;20892;-57
2023/09/17 02:17:28;;;;;;;26.33;22.13;;;22.20;99.90;;;;;;5073296;28;20441;-56
2023/09/17 02:19:56;;;;;;;24.23;21.80;;;22.20;99.90;;;;;;5073236;28;20559;-57
2023/09/17 02:22:23;;;;;;;21.60;19.50;;;22.10;99.90;;;;;;5073329;28;20448;-56
2023/09/17 02:24:50;;;;;;;25.07;22.50;;;22.10;99.90;;;;;;5073045;28;20448;-57
2023/09/17 02:27:16;;;;;;;24.63;22.10;;;22.10;99.90;;;;;;5073738;28;20441;-57
2023/09/17 02:29:43;;;;;;;25.03;22.47;;;22.10;99.90;;;;;;5073273;28;20993;-57
2023/09/17 02:32:10;;;;;;;24.70;22.03;;;22.10;99.90;;;;;;5073697;28;20491;-58
2023/09/17 02:34:38;;;;;;;25.90;23.30;;;22.10;99.90;;;;;;5073323;28;20480;-59
2023/09/17 02:37:06;;;;;;;25.33;22.80;;;22.00;99.90;;;;;;5073115;28;20445;-59
2023/09/17 02:39:35;;;;;;;28.03;23.07;;;22.00;99.90;;;;;;5072860;28;20860;-57
2023/09/17 02:42:03;;;;;;;28.30;23.87;;;22.00;99.90;;;;;;5072910;28;20452;-58
2023/09/17 02:44:29;;;;;;;26.47;23.63;;;21.90;99.90;;;;;;5072781;28;20445;-57
2023/09/17 02:46:56;;;;;;;27.57;24.60;;;21.90;99.90;;;;;;5073059;28;20440;-57
2023/09/17 02:49:23;;;;;;;21.70;19.60;;;21.90;99.90;;;;;;5073191;28;20574;-57
2023/09/17 02:51:50;;;;;;;24.97;22.07;;;21.90;99.90;;;;;;5073276;28;20489;-58
2023/09/17 02:54:18;;;;;;;20.87;18.87;;;21.90;99.90;;;;;;5073009;28;20479;-58
2023/09/17 02:56:45;;;;;;;23.10;20.37;;;21.90;99.90;;;;;;5072912;28;20443;-59
2023/09/17 02:59:12;;;;;;;23.47;21.07;;;21.90;99.90;;;;;;5073383;28;20469;-58
2023/09/17 03:01:40;;;;;;;23.80;20.37;;;22.00;99.90;;;;;;5073348;28;20480;-58
2023/09/17 03:04:07;;;;;;;22.00;19.77;;;22.00;99.90;;;;;;5072552;28;20798;-58
2023/09/17 03:06:34;;;;;;;21.33;19.07;;;22.00;99.90;;;;;;5073105;28;20531;-58
2023/09/17 03:09:01;;;;;;;19.83;17.90;;;22.00;99.90;;;;;;5072698;28;20547;-58
2023/09/17 03:11:29;;;;;;;23.83;21.13;;;22.00;99.90;;;;;;5072642;28;20440;-57
2023/09/17 03:13:57;;;;;;;21.20;19.20;;;22.00;99.90;;;;;;5074112;28;20452;-57
2023/09/17 03:16:23;;;;;;;19.40;17.47;;;22.00;99.90;;;;;;5076167;28;20504;-57
2023/09/17 03:18:50;;;;;;;20.63;18.63;;;22.00;99.90;;;;;;5076194;28;20472;-57
2023/09/17 03:21:18;;;;;;;21.70;19.53;;;22.00;99.90;;;;;;5075797;28;20957;-57
2023/09/17 03:23:44;;;;;;;20.93;18.93;;;22.00;99.90;;;;;;5076056;28;20452;-57
2023/09/17 03:26:11;;;;;;;21.70;19.70;;;22.00;99.90;;;;;;5076151;28;20444;-57
2023/09/17 03:28:39;;;;;;;23.80;21.30;;;22.00;99.90;;;;;;5076037;28;20436;-57
2023/09/17 03:31:06;;;;;;;25.27;22.80;;;22.00;99.90;;;;;;5075940;28;20463;-57
2023/09/17 03:33:33;;;;;;;24.23;21.80;;;22.00;99.90;;;;;;5075909;28;20436;-58
2023/09/17 03:36:01;;;;;;;23.33;20.90;;;22.00;99.90;;;;;;5075738;28;20484;-56
2023/09/17 03:38:27;;;;;;;24.50;22.10;;;22.00;99.90;;;;;;5075484;28;20444;-57
2023/09/17 03:40:55;;;;;;;23.40;21.20;;;22.00;99.90;;;;;;5075738;28;20448;-56
2023/09/17 03:43:21;;;;;;;24.60;22.27;;;22.00;99.90;;;;;;5075728;28;20445;-56
2023/09/17 03:45:51;;;;;;;26.23;23.60;;;22.00;99.90;;;;;;5075765;28;20471;-56
2023/09/17 03:48:18;;;;;;;26.20;23.47;;;22.00;99.90;;;;;;5075723;28;20448;-56
2023/09/17 03:50:45;;;;;;;25.80;23.30;;;22.00;99.90;;;;;;5075494;28;20481;-55
2023/09/17 03:53:13;;;;;;;24.43;20.80;;;22.00;99.90;;;;;;5075806;28;20451;-56
2023/09/17 03:55:41;;;;;;;23.63;21.40;;;22.00;99.90;;;;;;5075528;28;20472;-56
2023/09/17 03:58:08;;;;;;;27.57;24.83;;;22.00;99.90;;;;;;5075414;28;20448;-56
2023/09/17 04:00:36;;;;;;;23.10;20.77;;;22.00;99.90;;;;;;5075219;28;20965;-56
2023/09/17 04:03:05;;;;;;;23.67;21.40;;;22.00;99.90;;;;;;5075464;28;20456;-56
2023/09/17 04:05:32;;;;;;;30.23;27.20;;;21.90;99.90;;;;;;5075348;28;20445;-57
2023/09/17 04:07:58;;;;;;;24.57;22.07;;;22.00;99.90;;;;;;5075273;28;20440;-57
2023/09/17 04:10:26;;;;;;;25.90;23.53;;;21.90;99.90;;;;;;5075108;28;20469;-57
2023/09/17 04:12:52;;;;;;;24.53;22.40;;;22.00;99.90;;;;;;5075431;28;20448;-57
2023/09/17 04:15:20;;;;;;;26.93;24.40;;;21.90;99.90;;;;;;5075103;28;20838;-57
2023/09/17 04:17:48;;;;;;;25.23;22.93;;;21.90;99.90;;;;;;5075043;28;20906;-58
2023/09/17 04:20:18;;;;;;;30.60;27.43;;;21.90;99.90;;;;;;5074624;28;20465;-58
2023/09/17 04:22:46;;;;;;;28.20;25.67;;;21.90;99.90;;;;;;5075434;28;20844;-58
2023/09/17 04:25:15;;;;;;;26.20;23.90;;;21.90;99.90;;;;;;5073727;28;20544;-58
2023/09/17 04:27:42;;;;;;;26.50;24.00;;;21.90;99.90;;;;;;5074804;28;20817;-58
2023/09/17 04:30:09;;;;;;;26.90;24.40;;;21.90;99.90;;;;;;5074635;28;20510;-58
2023/09/17 04:32:37;;;;;;;30.10;27.23;;;21.90;99.90;;;;;;5074759;28;20448;-58
2023/09/17 04:35:07;;;;;;;31.77;28.67;;;21.90;99.90;;;;;;5074597;28;20611;-58
2023/09/17 04:37:36;;;;;;;30.33;27.53;;;21.80;99.90;;;;;;5074630;28;20456;-58
2023/09/17 04:40:08;;;;;;;33.70;30.40;;;21.80;99.90;;;;;;5074558;28;20461;-57
2023/09/17 04:42:35;;;;;;;33.87;30.73;;;21.80;99.90;;;;;;5074611;28;20465;-58
2023/09/17 04:45:02;;;;;;;32.17;29.17;;;21.80;99.90;;;;;;5074497;28;20444;-57
2023/09/17 04:47:30;;;;;;;31.90;29.00;;;21.80;99.90;;;;;;5074427;28;20457;-58
2023/09/17 04:49:57;;;;;;;32.57;29.57;;;21.80;99.90;;;;;;5074032;28;21068;-58
2023/09/17 04:52:24;;;;;;;32.50;29.30;;;21.70;99.90;;;;;;5074178;28;20445;-58
2023/09/17 04:54:52;;;;;;;29.67;26.70;;;21.70;99.90;;;;;;5074204;28;20492;-58
2023/09/17 04:57:19;;;;;;;33.80;30.70;;;21.80;99.90;;;;;;5074278;28;20456;-58
2023/09/17 04:59:46;;;;;;;32.27;29.07;;;21.80;99.90;;;;;;5074201;28;20472;-58
2023/09/17 05:02:14;;;;;;;34.70;31.13;;;21.70;99.90;;;;;;5074150;28;20448;-58
2023/09/17 05:04:40;;;;;;;34.63;31.50;;;21.80;99.90;;;;;;5074053;28;20449;-58
2023/09/17 05:07:07;;;;;;;33.27;30.07;;;21.80;99.90;;;;;;5074312;28;20452;-58
2023/09/17 05:09:34;;;;;;;32.60;29.60;;;21.70;99.90;;;;;;5074131;28;20461;-58
2023/09/17 05:12:02;;;;;;;33.17;30.17;;;21.70;99.90;;;;;;5074384;28;20938;-58
2023/09/17 05:14:29;;;;;;;32.97;29.87;;;21.70;99.90;;;;;;5074379;28;20481;-58
2023/09/17 05:16:56;;;;;;;26.13;23.53;;;21.70;99.90;;;;;;5074114;28;20480;-58
2023/09/17 05:19:23;;;;;;;28.50;25.77;;;21.70;99.90;;;;;;5074022;28;20468;-58
2023/09/17 05:21:49;;;;;;;29.53;26.77;;;21.70;99.90;;;;;;5073855;28;20440;-58
2023/09/17 05:24:17;;;;;;;28.63;26.07;;;21.70;99.90;;;;;;5073635;28;20989;-58
2023/09/17 05:26:43;;;;;;;29.83;26.90;;;21.70;99.90;;;;;;5073786;28;20791;-58
2023/09/17 05:29:15;;;;;;;31.83;28.50;;;21.70;99.90;;;;;;5073669;28;20456;-58
2023/09/17 05:31:42;;;;;;;31.83;28.83;;;21.70;99.90;;;;;;5073768;28;20528;-58
2023/09/17 05:34:08;;;;;;;30.87;27.97;;;21.70;99.90;;;;;;5076775;28;20464;-57
2023/09/17 05:36:35;;;;;;;27.37;24.80;;;21.80;99.90;;;;;;5093757;28;20503;-57
2023/09/17 05:39:02;;;;;;;31.17;28.07;;;21.80;99.90;;;;;;5093559;28;20988;-58
2023/09/17 05:41:29;;;;;;;29.47;26.77;;;21.80;99.90;;;;;;5093813;28;20440;-58
2023/09/17 05:43:55;;;;;;;27.63;25.13;;;21.80;99.90;;;;;;5093908;28;20446;-58
2023/09/17 05:46:24;;;;;;;27.50;24.80;;;21.70;99.90;;;;;;5094035;28;20436;-58
2023/09/17 05:48:50;;;;;;;30.60;27.50;;;21.80;99.90;;;;;;5093706;28;20851;-58
2023/09/17 05:51:17;;;;;;;23.60;21.50;;;21.80;99.90;;;;;;5093675;28;20964;-58
2023/09/17 05:53:44;;;;;;;23.13;20.83;;;21.80;99.90;;;;;;5093810;28;20443;-58
2023/09/17 05:56:11;;;;;;;27.00;24.30;;;21.80;99.90;;;;;;5093728;28;20487;-58
2023/09/17 05:58:37;;;;;;;25.73;23.30;;;21.80;99.90;;;;;;5093962;28;20444;-58
2023/09/17 06:01:05;;;;;;;26.90;24.30;;;21.80;99.90;;;;;;5093692;28;20454;-58
2023/09/17 06:03:35;;;;;;;23.43;21.20;;;21.80;99.90;;;;;;5093793;28;20476;-58
2023/09/17 06:06:03;;;;;;;27.17;24.47;;;21.80;99.90;;;;;;5093562;28;20431;-58
2023/09/17 06:08:30;;;;;;;22.23;20.20;;;21.80;99.90;;;;;;5093469;28;20444;-58
2023/09/17 06:10:57;;;;;;;24.17;21.87;;;21.90;99.90;;;;;;5094005;28;20443;-58
2023/09/17 06:13:23;;;;;;;22.43;20.37;;;21.90;99.90;;;;;;5093505;28;20444;-58
2023/09/17 06:15:50;;;;;;;27.47;24.70;;;22.00;99.90;;;;;;5093162;28;21016;-58
2023/09/17 06:18:18;;;;;;;24.13;21.93;;;22.00;99.90;;;;;;5093343;28;20494;-58
2023/09/17 06:20:47;;;;;;;23.70;20.50;;;22.00;99.90;;;;;;5093706;28;20444;-62
2023/09/17 06:23:13;;;;;;;28.97;25.93;;;22.00;99.90;;;;;;5093193;28;20443;-58
2023/09/17 06:25:40;;;;;;;27.07;24.40;;;22.00;99.90;;;;;;5093162;28;20912;-59
2023/09/17 06:28:07;;;;;;;26.60;23.90;;;22.10;99.90;;;;;;5093310;28;20447;-59
2023/09/17 06:30:34;;;;;;;24.83;22.33;;;22.10;99.90;;;;;;5093401;28;20464;-58
2023/09/17 06:33:01;;;;;;;24.93;22.57;;;22.10;99.90;;;;;;5093380;28;20451;-58
2023/09/17 06:35:28;;;;;;;21.83;19.67;;;22.20;99.90;;;;;;5093168;28;20856;-58
2023/09/17 06:37:56;;;;;;;21.00;19.00;;;22.20;99.90;;;;;;5093662;28;20443;-58
2023/09/17 06:40:23;;;;;;;20.07;18.20;;;22.20;99.90;;;;;;5093435;28;20468;-58
2023/09/17 06:42:50;;;;;;;19.60;17.73;;;22.20;99.90;;;;;;5093233;28;20848;-58
2023/09/17 06:45:18;;;;;;;16.60;15.13;;;22.20;99.90;;;;;;5092898;28;21006;-58
2023/09/17 06:47:44;;;;;;;16.93;15.37;;;22.20;99.90;;;;;;5093260;28;20443;-58
2023/09/17 06:50:11;;;;;;;17.43;15.67;;;22.20;99.90;;;;;;5096659;28;20471;-58
2023/09/17 06:52:38;;;;;;;17.73;16.03;;;22.20;99.90;;;;;;5097080;28;20810;-58
2023/09/17 06:55:06;;;;;;;18.77;16.97;;;22.20;99.90;;;;;;5096645;28;20444;-58
2023/09/17 06:57:33;;;;;;;18.90;17.20;;;22.20;99.90;;;;;;5096471;28;21005;-58
2023/09/17 07:00:00;;;;;;;16.27;14.77;;;22.20;99.90;;;;;;5096879;28;20484;-58
2023/09/17 07:02:26;;;;;;;15.47;14.07;;;22.30;99.90;;;;;;5096843;28;20451;-58
2023/09/17 07:04:53;;;;;;;15.43;14.03;;;22.20;99.90;;;;;;5096428;28;20463;-58
2023/09/17 07:07:20;;;;;;;15.87;14.20;;;22.30;99.90;;;;;;5096668;28;20505;-58
2023/09/17 07:09:46;;;;;;;16.63;14.00;;;22.30;99.90;;;;;;5096664;28;21037;-58
2023/09/17 07:12:16;;;;;;;15.80;14.23;;;22.20;99.90;;;;;;5096261;28;20953;-58
2023/09/17 07:14:43;;;;;;;11.90;10.70;;;22.20;99.90;;;;;;5096411;28;20534;-59
2023/09/17 07:17:10;;;;;;;12.07;11.07;;;22.30;99.90;;;;;;5095841;28;20437;-61
2023/09/17 07:19:36;;;;;;;14.30;13.00;;;22.30;99.90;;;;;;5096365;28;20224;-61
2023/09/17 07:22:03;;;;;;;14.63;12.60;;;22.40;99.90;;;;;;5096320;28;20436;-60
2023/09/17 07:24:30;;;;;;;11.80;10.67;;;22.50;99.90;;;;;;5096050;28;20459;-61
2023/09/17 07:26:56;;;;;;;12.10;10.90;;;22.50;99.90;;;;;;5096073;28;20828;-61
2023/09/17 07:29:26;;;;;;;10.83;9.77;;;22.60;99.90;;;;;;5096151;28;20467;-61
2023/09/17 07:31:53;;;;;;;10.27;9.33;;;22.60;99.90;;;;;;5095822;28;20810;-59
2023/09/17 07:34:19;;;;;;;10.33;9.33;;;22.70;99.90;;;;;;5096406;28;20443;-59
2023/09/17 07:36:46;;;;;;;12.20;9.83;;;22.70;99.90;;;;;;5096272;28;20481;-59
2023/09/17 07:39:13;;;;;;;9.10;8.30;;;22.70;99.90;;;;;;5095908;28;20499;-58
2023/09/17 07:41:40;;;;;;;9.30;8.40;;;22.80;99.90;;;;;;5096055;28;20439;-59
2023/09/17 07:44:07;;;;;;;8.63;7.83;;;22.90;99.90;;;;;;5095987;28;20470;-58
2023/09/17 07:46:35;;;;;;;8.63;7.80;;;23.00;99.90;;;;;;5095920;28;20464;-59
2023/09/17 07:49:01;;;;;;;7.90;7.10;;;23.10;99.90;;;;;;5096368;28;20464;-60
2023/09/17 07:51:28;;;;;;;8.23;7.53;;;23.10;99.90;;;;;;5095528;28;20929;-59
2023/09/17 07:53:55;;;;;;;8.60;7.80;;;23.20;99.90;;;;;;5095802;28;20466;-59
2023/09/17 07:56:22;;;;;;;8.43;7.63;;;23.30;99.90;;;;;;5095752;28;20479;-59
2023/09/17 07:58:49;;;;;;;8.50;7.37;;;23.30;99.90;;;;;;5096502;28;20494;-59
2023/09/17 08:01:15;;;;;;;7.73;6.07;;;23.40;99.90;;;;;;5094548;28;20448;-59
2023/09/17 08:03:43;;;;;;;5.93;5.37;;;23.50;99.10;;;;;;5095657;28;20785;-60
2023/09/17 08:06:11;;;;;;;7.13;6.50;;;23.50;98.90;;;;;;5096065;28;20459;-59
2023/09/17 08:08:38;;;;;;;7.00;5.50;;;23.50;99.10;;;;;;5095473;28;20517;-60
2023/09/17 08:11:04;;;;;;;6.87;5.80;;;23.50;98.80;;;;;;5095457;28;20454;-60
2023/09/17 08:13:31;;;;;;;8.50;6.40;;;23.60;98.50;;;;;;5095175;28;20960;-60
2023/09/17 08:15:58;;;;;;;5.70;5.30;;;23.70;98.20;;;;;;5095439;28;20479;-60
2023/09/17 08:18:24;;;;;;;7.80;5.73;;;23.70;97.80;;;;;;5095318;28;20450;-60
2023/09/17 08:20:53;;;;;;;6.57;5.90;;;23.80;97.90;;;;;;5095445;28;20439;-60
2023/09/17 08:23:19;;;;;;;8.90;6.00;;;23.80;97.90;;;;;;5095077;28;20435;-60
2023/09/17 08:25:46;;;;;;;6.73;5.17;;;23.90;97.80;;;;;;5094175;28;20448;-60
2023/09/17 08:28:15;;;;;;;8.27;5.17;;;23.90;97.00;;;;;;5095204;28;20436;-60
2023/09/17 08:30:42;;;;;;;5.87;5.40;;;23.90;97.30;;;;;;5095041;28;20471;-60
2023/09/17 08:33:11;;;;;;;5.23;4.83;;;24.00;97.40;;;;;;5095152;28;20444;-60
2023/09/17 08:35:38;;;;;;;8.40;5.40;;;24.20;97.40;;;;;;5078394;28;20468;-59
2023/09/17 08:38:06;;;;;;;5.57;5.07;;;24.30;97.30;;;;;;5074448;28;20997;-59
2023/09/17 08:40:35;;;;;;;5.20;4.77;;;24.50;96.70;;;;;;5074665;28;20456;-60
2023/09/17 08:43:04;;;;;;;7.40;4.53;;;24.60;96.40;;;;;;5074638;28;20437;-60
2023/09/17 08:45:31;;;;;;;5.53;4.23;;;24.70;95.60;;;;;;5074612;28;20441;-60
2023/09/17 08:47:58;;;;;;;4.70;4.30;;;24.80;95.80;;;;;;5074295;28;20440;-60
2023/09/17 08:50:26;;;;;;;4.63;4.23;;;24.90;95.60;;;;;;5078761;28;20476;-59
2023/09/17 08:52:55;;;;;;;4.43;4.03;;;24.90;94.50;;;;;;5078414;28;20459;-60
2023/09/17 08:55:23;;;;;;;4.93;4.23;;;24.90;94.00;;;;;;5080464;28;20464;-60
2023/09/17 08:57:58;;;;;;;7.23;4.67;;;25.10;94.30;;;;;;5090402;28;20480;-59
2023/09/17 09:00:26;;;;;;;4.70;4.30;;;25.20;94.20;;;;;;5080032;28;20488;-60
2023/09/17 09:02:59;;;;;;;4.60;4.20;;;25.40;93.90;;;;;;5078617;28;20954;-61
2023/09/17 09:05:28;;;;;;;4.13;3.73;;;25.50;93.30;;;;;;5082689;28;20439;-60
2023/09/17 09:07:56;;;;;;;6.33;3.60;;;25.60;92.60;;;;;;5094268;28;20493;-60
2023/09/17 09:10:25;;;;;;;5.80;4.10;;;25.70;92.00;;;;;;5094372;28;20878;-60
2023/09/17 09:12:51;;;;;;;4.50;4.07;;;25.80;91.60;;;;;;5094696;28;20852;-60
2023/09/17 09:15:18;;;;;;;4.23;3.83;;;25.80;91.70;;;;;;5094730;28;20435;-60
2023/09/17 09:17:45;;;;;;;5.87;4.00;;;26.00;91.00;;;;;;5094636;28;20480;-60
2023/09/17 09:20:14;;;;;;;4.27;3.97;;;26.00;90.50;;;;;;5094169;28;20472;-60
2023/09/17 09:22:43;;;;;;;7.40;4.10;;;26.10;90.30;;;;;;5094439;28;20478;-60
2023/09/17 09:25:13;;;;;;;4.87;4.47;;;26.10;90.00;;;;;;5094005;28;20452;-60
2023/09/17 09:27:41;;;;;;;10.63;4.03;;;26.20;90.10;;;;;;5094235;28;20933;-60
2023/09/17 09:30:09;;;;;;;10.13;4.40;;;26.30;89.60;;;;;;5094210;28;20463;-60
2023/09/17 09:32:37;;;;;;;8.97;4.00;;;26.40;90.00;;;;;;5094373;28;20475;-60
2023/09/17 09:35:04;;;;;;;4.20;3.83;;;26.70;88.80;;;;;;5094407;28;20440;-60
2023/09/17 09:37:31;;;;;;;4.67;3.93;;;26.90;88.30;;;;;;5094397;28;20480;-61
2023/09/17 09:39:59;;;;;;;7.43;4.20;;;27.20;86.40;;;;;;5094334;28;20463;-60
2023/09/17 09:42:26;;;;;;;4.40;3.80;;;27.30;84.40;;;;;;5094237;28;20863;-60
2023/09/17 09:44:54;;;;;;;30.07;7.37;;;27.50;83.70;;;;;;5093706;28;20953;-60
2023/09/17 09:47:23;;;;;;;7.40;3.87;;;27.70;82.90;;;;;;5093987;28;20941;-60
2023/09/17 09:49:50;;;;;;;4.97;4.47;;;27.80;81.20;;;;;;5094053;28;20455;-60
2023/09/17 09:52:17;;;;;;;16.03;4.80;;;28.00;80.00;;;;;;5094131;28;20466;-60
2023/09/17 09:54:46;;;;;;;6.73;4.00;;;28.20;80.00;;;;;;5094807;28;20454;-58
2023/09/17 09:57:13;;;;;;;21.60;4.80;;;28.30;78.10;;;;;;5094871;28;20475;-58
2023/09/17 09:59:44;;;;;;;5.63;4.30;;;28.40;79.30;;;;;;5094930;28;20459;-58
2023/09/17 10:02:15;;;;;;;5.27;4.20;;;28.60;78.20;;;;;;5095379;28;20455;-58
2023/09/17 10:04:43;;;;;;;10.27;5.03;;;28.90;76.80;;;;;;5095543;28;20477;-58
2023/09/17 10:07:10;;;;;;;82.17;10.43;;;29.00;75.20;;;;;;5093714;28;20959;-60
2023/09/17 10:09:37;;;;;;;8.23;4.17;;;29.30;75.00;;;;;;5094027;28;20455;-59
2023/09/17 10:12:04;;;;;;;7.43;4.17;;;29.80;73.20;;;;;;5093502;28;20445;-60
2023/09/17 10:14:36;;;;;;;4.67;3.60;;;30.30;70.50;;;;;;5093388;28;20448;-59
2023/09/17 10:17:06;;;;;;;5.17;3.60;;;30.60;64.30;;;;;;5093392;28;20558;-59
2023/09/17 10:19:35;;;;;;;7.97;3.80;;;30.90;65.10;;;;;;5093417;28;20844;-60
2023/09/17 10:22:03;;;;;;;4.40;4.00;;;31.20;61.20;;;;;;5093411;28;20439;-60
2023/09/17 10:24:32;;;;;;;4.17;3.87;;;31.40;60.40;;;;;;5095597;28;20465;-60
2023/09/17 10:26:59;;;;;;;5.63;4.00;;;31.60;58.90;;;;;;5097605;28;20454;-60
2023/09/17 10:29:27;;;;;;;5.90;4.30;;;32.00;57.90;;;;;;5097579;28;20458;-60
2023/09/17 10:31:56;;;;;;;5.37;4.17;;;32.60;55.60;;;;;;5097368;28;20447;-60
2023/09/17 10:34:24;;;;;;;4.50;4.07;;;32.80;54.50;;;;;;5097476;28;20439;-60
2023/09/17 10:36:54;;;;;;;6.33;4.40;;;32.70;53.30;;;;;;5097258;28;20478;-60
2023/09/17 10:39:22;;;;;;;5.03;4.40;;;32.80;53.60;;;;;;5097302;28;20474;-60
2023/09/17 10:41:50;;;;;;;5.50;4.23;;;33.00;51.90;;;;;;5096903;28;20944;-60
2023/09/17 10:44:21;;;;;;;4.80;4.07;;;33.20;50.90;;;;;;5097138;28;20443;-59
2023/09/17 10:46:48;;;;;;;4.40;3.70;;;33.40;50.60;;;;;;5097447;28;20419;-60
2023/09/17 10:49:17;;;;;;;4.80;4.33;;;33.70;50.10;;;;;;5097148;28;20463;-60
2023/09/17 10:51:44;;;;;;;9.40;4.17;;;34.40;49.70;;;;;;5097021;28;20443;-60
2023/09/17 10:54:13;;;;;;;4.90;3.83;;;35.00;48.00;;;;;;5097025;28;20482;-60
2023/09/17 10:56:42;;;;;;;4.17;3.87;;;35.70;45.50;;;;;;5096995;28;20855;-60
2023/09/17 10:59:11;;;;;;;4.10;3.77;;;36.10;43.50;;;;;;5096618;28;20477;-60
2023/09/17 11:01:40;;;;;;;4.30;4.00;;;36.30;42.60;;;;;;5096885;28;20227;-60
2023/09/17 11:04:11;;;;;;;8.53;4.43;;;36.40;42.50;;;;;;5096977;28;20275;-60
2023/09/17 11:06:40;;;;;;;6.30;4.73;;;36.30;42.40;;;;;;5097771;28;20229;-60
2023/09/17 11:09:07;;;;;;;4.80;4.47;;;36.20;42.20;;;;;;5096745;28;20217;-60
2023/09/17 11:11:35;;;;;;;3.97;3.40;;;36.40;41.10;;;;;;5096661;28;20208;-60
2023/09/17 11:14:04;;;;;;;4.88;4.30;;;36.90;41.30;;;;;;5096677;28;20205;-58
2023/09/17 11:16:34;;;;;;;4.05;3.67;;;37.60;40.40;;;;;;5096572;28;20204;-58
2023/09/17 11:19:10;;;;;;;4.53;3.70;;;38.20;37.90;;;;;;5096772;28;20725;-58
2023/09/17 11:21:37;;;;;;;4.18;3.88;;;38.80;36.70;;;;;;5096465;28;20207;-59
2023/09/17 11:24:06;;;;;;;4.13;3.83;;;39.20;36.10;;;;;;5096211;28;20287;-59
2023/09/17 11:26:35;;;;;;;6.68;4.00;;;39.50;34.40;;;;;;5096543;28;20201;-59
2023/09/17 11:29:06;;;;;;;3.92;3.63;;;39.90;34.40;;;;;;5096353;28;20249;-59
2023/09/17 11:31:35;;;;;;;5.50;3.47;;;40.00;33.40;;;;;;5095992;28;20559;-59
2023/09/17 11:34:05;;;;;;;4.13;3.80;;;39.40;34.00;;;;;;5092415;28;20618;-58
2023/09/17 11:36:34;;;;;;;4.38;3.97;;;38.40;35.90;;;;;;5075781;28;20589;-59
2023/09/17 11:39:04;;;;;;;4.80;4.40;;;37.30;37.50;;;;;;5075710;28;20264;-59
2023/09/17 11:42:03;;;;;;;4.93;4.27;;;36.30;39.80;;;;;;5075802;28;20197;-58
2023/09/17 11:44:31;;;;;;;4.33;4.03;;;35.50;42.20;;;;;;5075368;28;20194;-58
2023/09/17 11:46:58;;;;;;;4.10;3.80;;;35.50;43.60;;;;;;5075768;28;20471;-58
2023/09/17 11:49:25;;;;;;;4.40;4.00;;;36.00;42.80;;;;;;5075720;28;20441;-58
2023/09/17 11:51:54;;;;;;;6.97;4.33;;;36.40;41.70;;;;;;5075646;28;20205;-58
2023/09/17 11:54:25;;;;;;;6.47;4.43;;;36.10;41.80;;;;;;5075413;28;20202;-59
2023/09/17 11:56:55;;;;;;;4.30;4.00;;;35.90;42.30;;;;;;5075159;28;20201;-58
2023/09/17 11:59:22;;;;;;;5.77;4.47;;;35.60;42.20;;;;;;5075503;28;20257;-58
2023/09/17 12:01:52;;;;;;;4.70;4.40;;;35.20;43.20;;;;;;5075183;28;20210;-58
2023/09/17 12:04:21;;;;;;;4.53;4.23;;;34.80;44.00;;;;;;5075351;28;20451;-58
2023/09/17 12:06:50;;;;;;;9.80;4.03;;;34.50;44.10;;;;;;5075306;28;20471;-59
2023/09/17 12:12:24;;;;;;;4.83;3.57;;;35.30;43.60;;;;;;5072503;28;20456;-58
2023/09/17 12:14:51;;;;;;;4.57;4.27;;;36.40;41.40;;;;;;5075109;28;20198;-58
2023/09/17 12:17:18;;;;;;;4.32;3.85;;;37.20;38.40;;;;;;5075083;28;20222;-58
2023/09/17 12:22:56;;;;;;;3.92;3.60;;;38.50;36.20;;;;;;5067085;28;20706;-60
2023/09/17 12:25:23;;;;;;;3.90;3.60;;;39.40;33.90;;;;;;5075154;28;20263;-60
2023/09/17 12:27:51;;;;;;;4.15;3.90;;;40.00;32.80;;;;;;5075379;28;20206;-58
2023/09/17 12:30:18;;;;;;;3.75;3.45;;;40.60;32.20;;;;;;5075257;28;20222;-59
2023/09/17 12:32:45;;;;;;;10.57;8.60;;;41.10;30.40;;;;;;5074953;28;20684;-59
2023/09/17 12:35:13;;;;;;;3.95;3.65;;;41.50;29.70;;;;;;5075107;28;20224;-60
2023/09/17 12:37:40;;;;;;;4.30;4.00;;;41.80;28.90;;;;;;5074564;28;20626;-60
2023/09/17 12:40:08;;;;;;;4.32;3.92;;;41.90;28.30;;;;;;5074793;28;20218;-59
2023/09/17 12:42:35;;;;;;;3.88;3.65;;;42.10;28.40;;;;;;5074448;28;20675;-59
2023/09/17 12:45:04;;;;;;;4.88;3.22;;;42.20;28.20;;;;;;5074702;28;20252;-59